sensor_id;sensor_type;location;lat;lon;timestamp;P1;durP1;ratioP1;P2;durP2;ratioP2
40162;SDS011;25881;47.462;19.304;2023-09-30T00:00:14;10.65;;;6.22;;
40162;SDS011;25881;47.462;19.304;2023-09-30T00:02:39;11.55;;;6.72;;
40162;SDS011;25881;47.462;19.304;2023-09-30T00:05:04;12.17;;;6.57;;
40162;SDS011;25881;47.462;19.304;2023-09-30T00:07:30;11.85;;;7.00;;
40162;SDS011;25881;47.462;19.304;2023-09-30T00:09:55;11.10;;;6.50;;
40162;SDS011;25881;47.462;19.304;2023-09-30T00:12:20;12.47;;;6.30;;
40162;SDS011;25881;47.462;19.304;2023-09-30T00:14:45;11.82;;;6.68;;
40162;SDS011;25881;47.462;19.304;2023-09-30T00:17:13;15.70;;;6.77;;
40162;SDS011;25881;47.462;19.304;2023-09-30T00:19:38;15.30;;;6.70;;
40162;SDS011;25881;47.462;19.304;2023-09-30T00:22:03;11.80;;;7.10;;
40162;SDS011;25881;47.462;19.304;2023-09-30T00:24:29;15.30;;;7.45;;
40162;SDS011;25881;47.462;19.304;2023-09-30T00:26:54;11.40;;;6.50;;
40162;SDS011;25881;47.462;19.304;2023-09-30T00:29:19;11.02;;;6.13;;
40162;SDS011;25881;47.462;19.304;2023-09-30T00:31:45;13.93;;;6.50;;
40162;SDS011;25881;47.462;19.304;2023-09-30T00:34:10;11.90;;;6.37;;
40162;SDS011;25881;47.462;19.304;2023-09-30T00:36:35;13.50;;;7.07;;
40162;SDS011;25881;47.462;19.304;2023-09-30T00:39:00;11.03;;;6.50;;
40162;SDS011;25881;47.462;19.304;2023-09-30T00:41:26;10.48;;;6.43;;
40162;SDS011;25881;47.462;19.304;2023-09-30T00:43:51;9.23;;;6.30;;
40162;SDS011;25881;47.462;19.304;2023-09-30T00:46:30;10.40;;;6.50;;
40162;SDS011;25881;47.462;19.304;2023-09-30T00:48:57;12.82;;;6.70;;
40162;SDS011;25881;47.462;19.304;2023-09-30T00:51:22;13.43;;;6.70;;
40162;SDS011;25881;47.462;19.304;2023-09-30T00:53:48;11.05;;;6.82;;
40162;SDS011;25881;47.462;19.304;2023-09-30T00:56:13;18.05;;;7.22;;
40162;SDS011;25881;47.462;19.304;2023-09-30T00:58:39;13.40;;;6.70;;
40162;SDS011;25881;47.462;19.304;2023-09-30T01:01:04;11.03;;;6.97;;
40162;SDS011;25881;47.462;19.304;2023-09-30T01:03:29;9.82;;;6.38;;
40162;SDS011;25881;47.462;19.304;2023-09-30T01:05:54;13.93;;;7.23;;
40162;SDS011;25881;47.462;19.304;2023-09-30T01:08:20;12.30;;;7.20;;
40162;SDS011;25881;47.462;19.304;2023-09-30T01:10:45;29.45;;;8.57;;
40162;SDS011;25881;47.462;19.304;2023-09-30T01:13:10;11.60;;;6.82;;
40162;SDS011;25881;47.462;19.304;2023-09-30T01:15:36;11.93;;;7.40;;
40162;SDS011;25881;47.462;19.304;2023-09-30T01:18:02;11.27;;;6.43;;
40162;SDS011;25881;47.462;19.304;2023-09-30T01:20:27;16.52;;;7.43;;
40162;SDS011;25881;47.462;19.304;2023-09-30T01:22:53;11.63;;;6.47;;
40162;SDS011;25881;47.462;19.304;2023-09-30T01:25:20;16.33;;;7.88;;
40162;SDS011;25881;47.462;19.304;2023-09-30T01:27:45;12.85;;;7.85;;
40162;SDS011;25881;47.462;19.304;2023-09-30T01:30:10;10.57;;;7.40;;
40162;SDS011;25881;47.462;19.304;2023-09-30T01:32:36;15.80;;;8.13;;
40162;SDS011;25881;47.462;19.304;2023-09-30T01:35:01;12.95;;;7.22;;
40162;SDS011;25881;47.462;19.304;2023-09-30T01:37:27;13.15;;;8.13;;
40162;SDS011;25881;47.462;19.304;2023-09-30T01:39:53;13.38;;;8.13;;
40162;SDS011;25881;47.462;19.304;2023-09-30T01:42:20;11.98;;;7.90;;
40162;SDS011;25881;47.462;19.304;2023-09-30T01:44:45;13.10;;;7.57;;
40162;SDS011;25881;47.462;19.304;2023-09-30T01:47:10;11.60;;;7.73;;
40162;SDS011;25881;47.462;19.304;2023-09-30T01:49:36;14.50;;;7.60;;
40162;SDS011;25881;47.462;19.304;2023-09-30T01:52:02;10.40;;;7.80;;
40162;SDS011;25881;47.462;19.304;2023-09-30T01:54:27;10.30;;;7.90;;
40162;SDS011;25881;47.462;19.304;2023-09-30T01:56:52;13.03;;;7.43;;
40162;SDS011;25881;47.462;19.304;2023-09-30T01:59:18;10.30;;;7.63;;
40162;SDS011;25881;47.462;19.304;2023-09-30T02:01:43;12.33;;;8.43;;
40162;SDS011;25881;47.462;19.304;2023-09-30T02:04:08;11.10;;;8.23;;
40162;SDS011;25881;47.462;19.304;2023-09-30T02:06:33;13.57;;;9.27;;
40162;SDS011;25881;47.462;19.304;2023-09-30T02:08:59;14.45;;;9.27;;
40162;SDS011;25881;47.462;19.304;2023-09-30T02:11:24;12.32;;;8.25;;
40162;SDS011;25881;47.462;19.304;2023-09-30T02:13:50;11.93;;;8.93;;
40162;SDS011;25881;47.462;19.304;2023-09-30T02:16:15;18.87;;;9.37;;
40162;SDS011;25881;47.462;19.304;2023-09-30T02:18:42;16.03;;;8.73;;
40162;SDS011;25881;47.462;19.304;2023-09-30T02:21:09;13.73;;;9.00;;
40162;SDS011;25881;47.462;19.304;2023-09-30T02:23:35;16.65;;;9.45;;
40162;SDS011;25881;47.462;19.304;2023-09-30T02:26:01;13.05;;;9.20;;
40162;SDS011;25881;47.462;19.304;2023-09-30T02:28:27;14.25;;;8.90;;
40162;SDS011;25881;47.462;19.304;2023-09-30T02:30:52;16.03;;;9.23;;
40162;SDS011;25881;47.462;19.304;2023-09-30T02:33:18;17.10;;;9.13;;
40162;SDS011;25881;47.462;19.304;2023-09-30T02:35:44;13.52;;;8.52;;
40162;SDS011;25881;47.462;19.304;2023-09-30T02:38:10;17.42;;;8.50;;
40162;SDS011;25881;47.462;19.304;2023-09-30T02:40:36;12.68;;;8.40;;
40162;SDS011;25881;47.462;19.304;2023-09-30T02:43:01;11.82;;;8.65;;
40162;SDS011;25881;47.462;19.304;2023-09-30T02:45:26;14.97;;;8.07;;
40162;SDS011;25881;47.462;19.304;2023-09-30T02:47:52;10.10;;;7.57;;
40162;SDS011;25881;47.462;19.304;2023-09-30T02:50:17;12.73;;;6.63;;
40162;SDS011;25881;47.462;19.304;2023-09-30T02:52:42;12.70;;;7.20;;
40162;SDS011;25881;47.462;19.304;2023-09-30T02:55:10;10.37;;;7.40;;
40162;SDS011;25881;47.462;19.304;2023-09-30T02:57:36;10.52;;;6.85;;
40162;SDS011;25881;47.462;19.304;2023-09-30T03:00:05;13.20;;;7.25;;
40162;SDS011;25881;47.462;19.304;2023-09-30T03:02:48;12.65;;;7.07;;
40162;SDS011;25881;47.462;19.304;2023-09-30T03:05:13;15.80;;;6.50;;
40162;SDS011;25881;47.462;19.304;2023-09-30T03:07:38;13.00;;;6.93;;
40162;SDS011;25881;47.462;19.304;2023-09-30T03:10:05;13.13;;;6.72;;
40162;SDS011;25881;47.462;19.304;2023-09-30T03:12:30;14.13;;;6.80;;
40162;SDS011;25881;47.462;19.304;2023-09-30T03:14:56;14.38;;;7.25;;
40162;SDS011;25881;47.462;19.304;2023-09-30T03:17:21;12.70;;;7.47;;
40162;SDS011;25881;47.462;19.304;2023-09-30T03:19:47;12.10;;;7.00;;
40162;SDS011;25881;47.462;19.304;2023-09-30T03:22:12;10.63;;;7.07;;
40162;SDS011;25881;47.462;19.304;2023-09-30T03:24:38;11.23;;;6.80;;
40162;SDS011;25881;47.462;19.304;2023-09-30T03:27:03;12.10;;;6.22;;
40162;SDS011;25881;47.462;19.304;2023-09-30T03:29:28;15.77;;;6.88;;
40162;SDS011;25881;47.462;19.304;2023-09-30T03:31:54;13.00;;;7.20;;
40162;SDS011;25881;47.462;19.304;2023-09-30T03:34:19;8.67;;;6.37;;
40162;SDS011;25881;47.462;19.304;2023-09-30T03:36:45;10.88;;;6.68;;
40162;SDS011;25881;47.462;19.304;2023-09-30T03:39:10;11.30;;;6.60;;
40162;SDS011;25881;47.462;19.304;2023-09-30T03:41:39;12.93;;;7.00;;
40162;SDS011;25881;47.462;19.304;2023-09-30T03:44:05;11.20;;;7.23;;
40162;SDS011;25881;47.462;19.304;2023-09-30T03:46:30;11.20;;;6.30;;
40162;SDS011;25881;47.462;19.304;2023-09-30T03:48:55;16.63;;;6.97;;
40162;SDS011;25881;47.462;19.304;2023-09-30T03:51:20;12.30;;;6.97;;
40162;SDS011;25881;47.462;19.304;2023-09-30T03:53:47;12.40;;;8.52;;
40162;SDS011;25881;47.462;19.304;2023-09-30T03:56:12;9.98;;;8.07;;
40162;SDS011;25881;47.462;19.304;2023-09-30T03:58:41;12.38;;;8.25;;
40162;SDS011;25881;47.462;19.304;2023-09-30T04:01:07;14.48;;;8.38;;
40162;SDS011;25881;47.462;19.304;2023-09-30T04:03:33;14.20;;;9.55;;
40162;SDS011;25881;47.462;19.304;2023-09-30T04:05:58;12.52;;;8.82;;
40162;SDS011;25881;47.462;19.304;2023-09-30T04:08:23;13.13;;;8.45;;
40162;SDS011;25881;47.462;19.304;2023-09-30T04:10:49;11.53;;;8.17;;
40162;SDS011;25881;47.462;19.304;2023-09-30T04:13:14;16.23;;;8.43;;
40162;SDS011;25881;47.462;19.304;2023-09-30T04:15:39;11.48;;;7.72;;
40162;SDS011;25881;47.462;19.304;2023-09-30T04:18:05;13.88;;;7.90;;
40162;SDS011;25881;47.462;19.304;2023-09-30T04:20:30;13.98;;;7.82;;
40162;SDS011;25881;47.462;19.304;2023-09-30T04:22:56;24.48;;;9.27;;
40162;SDS011;25881;47.462;19.304;2023-09-30T04:25:22;13.52;;;8.48;;
40162;SDS011;25881;47.462;19.304;2023-09-30T04:27:49;9.75;;;7.25;;
40162;SDS011;25881;47.462;19.304;2023-09-30T04:30:14;15.20;;;7.85;;
40162;SDS011;25881;47.462;19.304;2023-09-30T04:32:40;13.93;;;8.68;;
40162;SDS011;25881;47.462;19.304;2023-09-30T04:35:05;12.53;;;8.07;;
40162;SDS011;25881;47.462;19.304;2023-09-30T04:37:31;14.15;;;8.13;;
40162;SDS011;25881;47.462;19.304;2023-09-30T04:39:56;17.27;;;7.88;;
40162;SDS011;25881;47.462;19.304;2023-09-30T04:42:23;23.25;;;8.38;;
40162;SDS011;25881;47.462;19.304;2023-09-30T04:44:50;12.02;;;7.65;;
40162;SDS011;25881;47.462;19.304;2023-09-30T04:47:15;11.60;;;7.03;;
40162;SDS011;25881;47.462;19.304;2023-09-30T04:49:40;11.87;;;7.93;;
40162;SDS011;25881;47.462;19.304;2023-09-30T04:52:08;14.52;;;7.65;;
40162;SDS011;25881;47.462;19.304;2023-09-30T04:54:34;11.80;;;7.10;;
40162;SDS011;25881;47.462;19.304;2023-09-30T04:57:00;12.25;;;7.80;;
40162;SDS011;25881;47.462;19.304;2023-09-30T04:59:25;12.57;;;7.47;;
40162;SDS011;25881;47.462;19.304;2023-09-30T05:01:51;12.05;;;6.57;;
40162;SDS011;25881;47.462;19.304;2023-09-30T05:04:16;13.95;;;7.70;;
40162;SDS011;25881;47.462;19.304;2023-09-30T05:06:42;13.75;;;7.72;;
40162;SDS011;25881;47.462;19.304;2023-09-30T05:09:07;13.88;;;8.27;;
40162;SDS011;25881;47.462;19.304;2023-09-30T05:11:32;13.57;;;7.00;;
40162;SDS011;25881;47.462;19.304;2023-09-30T05:13:58;17.10;;;7.38;;
40162;SDS011;25881;47.462;19.304;2023-09-30T05:16:24;15.40;;;7.00;;
40162;SDS011;25881;47.462;19.304;2023-09-30T05:18:51;13.48;;;7.43;;
40162;SDS011;25881;47.462;19.304;2023-09-30T05:21:17;11.77;;;7.13;;
40162;SDS011;25881;47.462;19.304;2023-09-30T05:23:42;11.83;;;7.67;;
40162;SDS011;25881;47.462;19.304;2023-09-30T05:26:07;12.13;;;8.10;;
40162;SDS011;25881;47.462;19.304;2023-09-30T05:28:32;22.00;;;8.97;;
40162;SDS011;25881;47.462;19.304;2023-09-30T05:30:58;13.27;;;8.13;;
40162;SDS011;25881;47.462;19.304;2023-09-30T05:33:23;18.10;;;8.37;;
40162;SDS011;25881;47.462;19.304;2023-09-30T05:35:48;14.67;;;8.60;;
40162;SDS011;25881;47.462;19.304;2023-09-30T05:38:13;12.63;;;8.20;;
40162;SDS011;25881;47.462;19.304;2023-09-30T05:40:39;17.65;;;9.30;;
40162;SDS011;25881;47.462;19.304;2023-09-30T05:43:04;14.97;;;8.90;;
40162;SDS011;25881;47.462;19.304;2023-09-30T05:45:31;11.23;;;7.43;;
40162;SDS011;25881;47.462;19.304;2023-09-30T05:47:56;13.50;;;8.93;;
40162;SDS011;25881;47.462;19.304;2023-09-30T05:50:24;12.43;;;8.77;;
40162;SDS011;25881;47.462;19.304;2023-09-30T05:52:53;15.25;;;9.05;;
40162;SDS011;25881;47.462;19.304;2023-09-30T05:55:19;15.73;;;8.65;;
40162;SDS011;25881;47.462;19.304;2023-09-30T05:57:49;13.32;;;9.25;;
40162;SDS011;25881;47.462;19.304;2023-09-30T06:02:45;28.63;;;11.38;;
40162;SDS011;25881;47.462;19.304;2023-09-30T06:05:11;23.30;;;11.45;;
40162;SDS011;25881;47.462;19.304;2023-09-30T06:07:36;22.47;;;11.17;;
40162;SDS011;25881;47.462;19.304;2023-09-30T06:10:01;18.17;;;11.70;;
40162;SDS011;25881;47.462;19.304;2023-09-30T06:12:28;18.35;;;10.88;;
40162;SDS011;25881;47.462;19.304;2023-09-30T06:14:53;20.88;;;11.70;;
40162;SDS011;25881;47.462;19.304;2023-09-30T06:17:18;28.07;;;12.90;;
40162;SDS011;25881;47.462;19.304;2023-09-30T06:19:47;21.40;;;11.73;;
40162;SDS011;25881;47.462;19.304;2023-09-30T06:22:13;16.98;;;10.95;;
40162;SDS011;25881;47.462;19.304;2023-09-30T06:24:39;18.05;;;11.45;;
40162;SDS011;25881;47.462;19.304;2023-09-30T06:27:04;15.83;;;10.47;;
40162;SDS011;25881;47.462;19.304;2023-09-30T06:29:30;15.63;;;9.75;;
40162;SDS011;25881;47.462;19.304;2023-09-30T06:31:56;18.53;;;9.57;;
40162;SDS011;25881;47.462;19.304;2023-09-30T06:34:21;20.37;;;9.73;;
40162;SDS011;25881;47.462;19.304;2023-09-30T06:36:46;22.80;;;10.33;;
40162;SDS011;25881;47.462;19.304;2023-09-30T06:39:11;19.57;;;13.53;;
40162;SDS011;25881;47.462;19.304;2023-09-30T06:41:36;18.10;;;12.20;;
40162;SDS011;25881;47.462;19.304;2023-09-30T06:44:02;20.77;;;10.73;;
40162;SDS011;25881;47.462;19.304;2023-09-30T06:46:27;17.97;;;11.63;;
40162;SDS011;25881;47.462;19.304;2023-09-30T06:48:52;22.30;;;12.13;;
40162;SDS011;25881;47.462;19.304;2023-09-30T06:51:17;19.45;;;11.13;;
40162;SDS011;25881;47.462;19.304;2023-09-30T06:53:43;22.00;;;13.07;;
40162;SDS011;25881;47.462;19.304;2023-09-30T06:56:08;16.77;;;11.65;;
40162;SDS011;25881;47.462;19.304;2023-09-30T06:58:33;16.17;;;11.53;;
40162;SDS011;25881;47.462;19.304;2023-09-30T07:00:59;16.47;;;10.90;;
40162;SDS011;25881;47.462;19.304;2023-09-30T07:03:24;14.45;;;11.13;;
40162;SDS011;25881;47.462;19.304;2023-09-30T07:05:49;19.88;;;11.52;;
40162;SDS011;25881;47.462;19.304;2023-09-30T07:08:18;22.10;;;13.93;;
40162;SDS011;25881;47.462;19.304;2023-09-30T07:10:43;24.75;;;14.73;;
40162;SDS011;25881;47.462;19.304;2023-09-30T07:13:09;21.83;;;14.45;;
40162;SDS011;25881;47.462;19.304;2023-09-30T07:15:34;39.83;;;23.53;;
40162;SDS011;25881;47.462;19.304;2023-09-30T07:17:59;77.03;;;41.50;;
40162;SDS011;25881;47.462;19.304;2023-09-30T07:20:24;53.03;;;34.00;;
40162;SDS011;25881;47.462;19.304;2023-09-30T07:22:50;44.93;;;25.63;;
40162;SDS011;25881;47.462;19.304;2023-09-30T07:25:15;38.30;;;24.92;;
40162;SDS011;25881;47.462;19.304;2023-09-30T07:27:45;28.17;;;16.38;;
40162;SDS011;25881;47.462;19.304;2023-09-30T07:30:11;28.17;;;13.45;;
40162;SDS011;25881;47.462;19.304;2023-09-30T07:32:37;22.67;;;13.25;;
40162;SDS011;25881;47.462;19.304;2023-09-30T07:35:02;25.67;;;13.30;;
40162;SDS011;25881;47.462;19.304;2023-09-30T07:37:28;26.55;;;10.98;;
40162;SDS011;25881;47.462;19.304;2023-09-30T07:39:53;26.50;;;10.52;;
40162;SDS011;25881;47.462;19.304;2023-09-30T07:42:18;14.57;;;10.23;;
40162;SDS011;25881;47.462;19.304;2023-09-30T07:44:44;16.37;;;9.87;;
40162;SDS011;25881;47.462;19.304;2023-09-30T07:47:09;17.30;;;9.57;;
40162;SDS011;25881;47.462;19.304;2023-09-30T07:49:34;13.77;;;11.10;;
40162;SDS011;25881;47.462;19.304;2023-09-30T07:52:00;19.65;;;11.70;;
40162;SDS011;25881;47.462;19.304;2023-09-30T07:54:25;15.43;;;10.38;;
40162;SDS011;25881;47.462;19.304;2023-09-30T07:56:50;20.37;;;10.37;;
40162;SDS011;25881;47.462;19.304;2023-09-30T07:59:15;15.10;;;9.53;;
40162;SDS011;25881;47.462;19.304;2023-09-30T08:01:41;17.15;;;9.40;;
40162;SDS011;25881;47.462;19.304;2023-09-30T08:04:06;20.35;;;10.23;;
40162;SDS011;25881;47.462;19.304;2023-09-30T08:06:31;12.97;;;8.53;;
40162;SDS011;25881;47.462;19.304;2023-09-30T08:11:23;19.98;;;9.82;;
40162;SDS011;25881;47.462;19.304;2023-09-30T08:13:52;16.40;;;9.93;;
40162;SDS011;25881;47.462;19.304;2023-09-30T08:16:18;18.52;;;9.60;;
40162;SDS011;25881;47.462;19.304;2023-09-30T08:18:44;16.60;;;9.43;;
40162;SDS011;25881;47.462;19.304;2023-09-30T08:21:09;21.87;;;10.40;;
40162;SDS011;25881;47.462;19.304;2023-09-30T08:23:36;21.35;;;9.85;;
40162;SDS011;25881;47.462;19.304;2023-09-30T08:26:01;18.63;;;9.83;;
40162;SDS011;25881;47.462;19.304;2023-09-30T08:28:26;18.80;;;10.57;;
40162;SDS011;25881;47.462;19.304;2023-09-30T08:30:51;15.53;;;10.03;;
40162;SDS011;25881;47.462;19.304;2023-09-30T08:33:19;14.13;;;8.55;;
40162;SDS011;25881;47.462;19.304;2023-09-30T08:35:44;11.93;;;8.50;;
40162;SDS011;25881;47.462;19.304;2023-09-30T08:38:10;12.87;;;8.70;;
40162;SDS011;25881;47.462;19.304;2023-09-30T08:40:35;14.60;;;8.43;;
40162;SDS011;25881;47.462;19.304;2023-09-30T08:43:00;13.90;;;8.48;;
40162;SDS011;25881;47.462;19.304;2023-09-30T08:45:29;16.63;;;8.35;;
40162;SDS011;25881;47.462;19.304;2023-09-30T08:47:56;15.40;;;9.70;;
40162;SDS011;25881;47.462;19.304;2023-09-30T08:50:22;15.77;;;9.95;;
40162;SDS011;25881;47.462;19.304;2023-09-30T08:52:47;15.67;;;8.00;;
40162;SDS011;25881;47.462;19.304;2023-09-30T08:55:12;17.17;;;7.43;;
40162;SDS011;25881;47.462;19.304;2023-09-30T08:57:38;16.80;;;7.60;;
40162;SDS011;25881;47.462;19.304;2023-09-30T09:02:33;12.20;;;7.80;;
40162;SDS011;25881;47.462;19.304;2023-09-30T09:04:59;17.67;;;8.18;;
40162;SDS011;25881;47.462;19.304;2023-09-30T09:07:25;16.40;;;7.57;;
40162;SDS011;25881;47.462;19.304;2023-09-30T09:12:34;16.50;;;7.50;;
40162;SDS011;25881;47.462;19.304;2023-09-30T09:15:00;15.40;;;7.75;;
40162;SDS011;25881;47.462;19.304;2023-09-30T09:17:30;11.10;;;6.47;;
40162;SDS011;25881;47.462;19.304;2023-09-30T09:20:05;13.20;;;6.70;;
40162;SDS011;25881;47.462;19.304;2023-09-30T09:22:40;11.38;;;7.10;;
40162;SDS011;25881;47.462;19.304;2023-09-30T09:25:05;16.20;;;7.45;;
40162;SDS011;25881;47.462;19.304;2023-09-30T09:27:33;13.10;;;7.32;;
40162;SDS011;25881;47.462;19.304;2023-09-30T09:29:58;16.30;;;8.07;;
40162;SDS011;25881;47.462;19.304;2023-09-30T09:32:38;16.83;;;7.63;;
40162;SDS011;25881;47.462;19.304;2023-09-30T09:35:04;14.57;;;8.07;;
40162;SDS011;25881;47.462;19.304;2023-09-30T09:37:30;14.77;;;7.85;;
40162;SDS011;25881;47.462;19.304;2023-09-30T09:39:57;19.30;;;8.10;;
40162;SDS011;25881;47.462;19.304;2023-09-30T09:42:26;16.75;;;8.55;;
40162;SDS011;25881;47.462;19.304;2023-09-30T09:44:55;14.85;;;7.50;;
40162;SDS011;25881;47.462;19.304;2023-09-30T09:47:21;13.50;;;7.57;;
40162;SDS011;25881;47.462;19.304;2023-09-30T09:49:48;13.43;;;7.28;;
40162;SDS011;25881;47.462;19.304;2023-09-30T09:52:13;16.73;;;8.68;;
40162;SDS011;25881;47.462;19.304;2023-09-30T09:54:41;15.73;;;7.28;;
40162;SDS011;25881;47.462;19.304;2023-09-30T09:57:08;14.20;;;7.57;;
40162;SDS011;25881;47.462;19.304;2023-09-30T09:59:35;16.77;;;8.00;;
40162;SDS011;25881;47.462;19.304;2023-09-30T10:02:01;13.75;;;7.80;;
40162;SDS011;25881;47.462;19.304;2023-09-30T10:04:28;11.63;;;7.82;;
40162;SDS011;25881;47.462;19.304;2023-09-30T10:06:53;21.73;;;10.35;;
40162;SDS011;25881;47.462;19.304;2023-09-30T10:09:20;14.82;;;8.23;;
40162;SDS011;25881;47.462;19.304;2023-09-30T10:11:46;12.65;;;9.30;;
40162;SDS011;25881;47.462;19.304;2023-09-30T10:14:29;16.60;;;8.45;;
40162;SDS011;25881;47.462;19.304;2023-09-30T10:16:55;12.52;;;8.55;;
40162;SDS011;25881;47.462;19.304;2023-09-30T10:19:21;15.30;;;8.30;;
40162;SDS011;25881;47.462;19.304;2023-09-30T10:24:33;16.35;;;8.73;;
40162;SDS011;25881;47.462;19.304;2023-09-30T10:29:43;13.30;;;7.75;;
40162;SDS011;25881;47.462;19.304;2023-09-30T10:32:08;11.77;;;8.27;;
40162;SDS011;25881;47.462;19.304;2023-09-30T10:34:34;16.08;;;8.38;;
40162;SDS011;25881;47.462;19.304;2023-09-30T10:36:59;12.77;;;7.68;;
40162;SDS011;25881;47.462;19.304;2023-09-30T10:51:18;10.57;;;6.93;;
40162;SDS011;25881;47.462;19.304;2023-09-30T10:53:55;12.93;;;7.70;;
40162;SDS011;25881;47.462;19.304;2023-09-30T10:56:31;11.00;;;6.93;;
40162;SDS011;25881;47.462;19.304;2023-09-30T10:58:57;14.95;;;6.90;;
40162;SDS011;25881;47.462;19.304;2023-09-30T11:01:23;12.23;;;6.43;;
40162;SDS011;25881;47.462;19.304;2023-09-30T11:03:49;13.20;;;7.05;;
40162;SDS011;25881;47.462;19.304;2023-09-30T11:06:16;13.73;;;7.57;;
40162;SDS011;25881;47.462;19.304;2023-09-30T11:08:50;14.90;;;7.78;;
40162;SDS011;25881;47.462;19.304;2023-09-30T11:11:16;12.23;;;7.40;;
40162;SDS011;25881;47.462;19.304;2023-09-30T11:13:41;13.23;;;6.77;;
40162;SDS011;25881;47.462;19.304;2023-09-30T11:16:06;16.45;;;7.72;;
40162;SDS011;25881;47.462;19.304;2023-09-30T11:18:33;11.68;;;7.72;;
40162;SDS011;25881;47.462;19.304;2023-09-30T11:21:05;10.88;;;7.03;;
40162;SDS011;25881;47.462;19.304;2023-09-30T11:23:31;13.70;;;7.97;;
40162;SDS011;25881;47.462;19.304;2023-09-30T11:25:57;14.07;;;7.45;;
40162;SDS011;25881;47.462;19.304;2023-09-30T11:28:22;12.90;;;7.53;;
40162;SDS011;25881;47.462;19.304;2023-09-30T11:33:22;13.07;;;7.78;;
40162;SDS011;25881;47.462;19.304;2023-09-30T11:38:24;15.40;;;7.78;;
40162;SDS011;25881;47.462;19.304;2023-09-30T11:41:01;10.63;;;7.87;;
40162;SDS011;25881;47.462;19.304;2023-09-30T11:43:29;14.38;;;8.32;;
40162;SDS011;25881;47.462;19.304;2023-09-30T11:46:10;15.15;;;7.72;;
40162;SDS011;25881;47.462;19.304;2023-09-30T11:48:37;12.32;;;9.02;;
40162;SDS011;25881;47.462;19.304;2023-09-30T11:51:02;16.17;;;8.55;;
40162;SDS011;25881;47.462;19.304;2023-09-30T11:53:31;14.32;;;8.98;;
40162;SDS011;25881;47.462;19.304;2023-09-30T11:55:57;24.05;;;9.40;;
40162;SDS011;25881;47.462;19.304;2023-09-30T11:58:23;13.57;;;8.98;;
40162;SDS011;25881;47.462;19.304;2023-09-30T12:00:49;15.65;;;8.65;;
40162;SDS011;25881;47.462;19.304;2023-09-30T12:03:17;12.57;;;8.10;;
40162;SDS011;25881;47.462;19.304;2023-09-30T12:05:42;16.13;;;9.47;;
40162;SDS011;25881;47.462;19.304;2023-09-30T12:08:08;12.25;;;8.93;;
40162;SDS011;25881;47.462;19.304;2023-09-30T12:10:33;17.50;;;9.77;;
40162;SDS011;25881;47.462;19.304;2023-09-30T12:12:58;16.37;;;10.17;;
40162;SDS011;25881;47.462;19.304;2023-09-30T12:15:23;15.30;;;9.43;;
40162;SDS011;25881;47.462;19.304;2023-09-30T12:17:48;15.17;;;10.03;;
40162;SDS011;25881;47.462;19.304;2023-09-30T12:20:14;17.48;;;9.38;;
40162;SDS011;25881;47.462;19.304;2023-09-30T12:22:41;16.17;;;9.57;;
40162;SDS011;25881;47.462;19.304;2023-09-30T12:25:06;17.37;;;10.43;;
40162;SDS011;25881;47.462;19.304;2023-09-30T12:27:33;14.40;;;10.50;;
40162;SDS011;25881;47.462;19.304;2023-09-30T12:29:58;19.48;;;11.48;;
40162;SDS011;25881;47.462;19.304;2023-09-30T12:32:24;18.20;;;10.10;;
40162;SDS011;25881;47.462;19.304;2023-09-30T12:34:50;14.43;;;10.20;;
40162;SDS011;25881;47.462;19.304;2023-09-30T12:37:16;16.38;;;10.63;;
40162;SDS011;25881;47.462;19.304;2023-09-30T12:39:41;13.15;;;9.88;;
40162;SDS011;25881;47.462;19.304;2023-09-30T12:42:06;15.20;;;10.97;;
40162;SDS011;25881;47.462;19.304;2023-09-30T12:44:34;18.50;;;10.05;;
40162;SDS011;25881;47.462;19.304;2023-09-30T12:46:59;13.27;;;10.47;;
40162;SDS011;25881;47.462;19.304;2023-09-30T12:49:25;17.20;;;10.40;;
40162;SDS011;25881;47.462;19.304;2023-09-30T12:51:50;17.17;;;11.00;;
40162;SDS011;25881;47.462;19.304;2023-09-30T12:54:15;16.47;;;10.43;;
40162;SDS011;25881;47.462;19.304;2023-09-30T12:56:43;17.58;;;10.95;;
40162;SDS011;25881;47.462;19.304;2023-09-30T12:59:08;17.10;;;11.73;;
40162;SDS011;25881;47.462;19.304;2023-09-30T13:01:33;14.13;;;10.63;;
40162;SDS011;25881;47.462;19.304;2023-09-30T13:03:59;15.32;;;10.68;;
40162;SDS011;25881;47.462;19.304;2023-09-30T13:06:24;14.05;;;10.98;;
40162;SDS011;25881;47.462;19.304;2023-09-30T13:08:49;17.53;;;11.07;;
40162;SDS011;25881;47.462;19.304;2023-09-30T13:11:15;15.60;;;11.13;;
40162;SDS011;25881;47.462;19.304;2023-09-30T13:13:40;18.03;;;11.37;;
40162;SDS011;25881;47.462;19.304;2023-09-30T13:16:05;19.55;;;11.57;;
40162;SDS011;25881;47.462;19.304;2023-09-30T13:18:32;15.63;;;10.70;;
40162;SDS011;25881;47.462;19.304;2023-09-30T13:20:58;20.30;;;11.07;;
40162;SDS011;25881;47.462;19.304;2023-09-30T13:23:23;14.27;;;12.10;;
40162;SDS011;25881;47.462;19.304;2023-09-30T13:25:49;16.23;;;11.52;;
40162;SDS011;25881;47.462;19.304;2023-09-30T13:28:14;20.00;;;12.53;;
40162;SDS011;25881;47.462;19.304;2023-09-30T13:30:40;19.83;;;12.55;;
40162;SDS011;25881;47.462;19.304;2023-09-30T13:33:05;18.85;;;12.25;;
40162;SDS011;25881;47.462;19.304;2023-09-30T13:35:31;25.53;;;13.13;;
40162;SDS011;25881;47.462;19.304;2023-09-30T13:37:56;16.30;;;12.25;;
40162;SDS011;25881;47.462;19.304;2023-09-30T13:40:22;16.40;;;12.23;;
40162;SDS011;25881;47.462;19.304;2023-09-30T13:42:47;18.63;;;11.53;;
40162;SDS011;25881;47.462;19.304;2023-09-30T13:45:12;17.33;;;11.53;;
40162;SDS011;25881;47.462;19.304;2023-09-30T13:47:38;18.58;;;11.68;;
40162;SDS011;25881;47.462;19.304;2023-09-30T13:50:03;18.17;;;11.13;;
40162;SDS011;25881;47.462;19.304;2023-09-30T13:52:29;18.27;;;11.73;;
40162;SDS011;25881;47.462;19.304;2023-09-30T13:54:54;14.30;;;10.48;;
40162;SDS011;25881;47.462;19.304;2023-09-30T13:57:20;18.33;;;11.38;;
40162;SDS011;25881;47.462;19.304;2023-09-30T13:59:45;15.97;;;11.17;;
40162;SDS011;25881;47.462;19.304;2023-09-30T14:02:11;13.73;;;10.45;;
40162;SDS011;25881;47.462;19.304;2023-09-30T14:04:37;13.77;;;10.75;;
40162;SDS011;25881;47.462;19.304;2023-09-30T14:07:03;18.25;;;11.25;;
40162;SDS011;25881;47.462;19.304;2023-09-30T14:09:28;16.23;;;11.00;;
40162;SDS011;25881;47.462;19.304;2023-09-30T14:11:53;15.43;;;10.75;;
40162;SDS011;25881;47.462;19.304;2023-09-30T14:14:19;16.70;;;10.23;;
40162;SDS011;25881;47.462;19.304;2023-09-30T14:16:44;18.53;;;10.37;;
40162;SDS011;25881;47.462;19.304;2023-09-30T14:19:09;16.23;;;10.10;;
40162;SDS011;25881;47.462;19.304;2023-09-30T14:21:34;17.90;;;11.00;;
40162;SDS011;25881;47.462;19.304;2023-09-30T14:24:00;14.82;;;10.45;;
40162;SDS011;25881;47.462;19.304;2023-09-30T14:26:27;14.15;;;10.07;;
40162;SDS011;25881;47.462;19.304;2023-09-30T14:28:52;13.95;;;9.60;;
40162;SDS011;25881;47.462;19.304;2023-09-30T14:31:17;13.77;;;9.97;;
40162;SDS011;25881;47.462;19.304;2023-09-30T14:33:42;16.27;;;10.73;;
40162;SDS011;25881;47.462;19.304;2023-09-30T14:36:08;15.63;;;10.07;;
40162;SDS011;25881;47.462;19.304;2023-09-30T14:38:33;14.17;;;9.70;;
40162;SDS011;25881;47.462;19.304;2023-09-30T14:40:58;16.75;;;9.60;;
40162;SDS011;25881;47.462;19.304;2023-09-30T14:43:23;13.30;;;9.90;;